Time;durP1;ratioP1;P1;durP2;ratioP2;P2;SDS_P1;SDS_P2;PMS_P1;PMS_P2;Temp;Humidity;BMP_temperature;BMP_pressure;BME280_temperature;BME280_humidity;BME280_pressure;Samples;Min_cycle;Max_cycle;Signal;HPM_P1;HPM_P2
2021/04/27 00:01:07;;;;;;;6.78;4.00;;;6.00;80.90;;;;;;4992472;28;20030;-69
2021/04/27 00:03:33;;;;;;;5.85;3.38;;;5.90;81.20;;;;;;4991542;28;20038;-70
2021/04/27 00:05:59;;;;;;;5.60;4.10;;;5.80;81.80;;;;;;4991766;28;20034;-69
2021/04/27 00:08:25;;;;;;;10.20;3.70;;;5.80;81.90;;;;;;4991976;28;20034;-69
2021/04/27 00:10:51;;;;;;;6.68;3.35;;;5.80;82.30;;;;;;4991676;28;20081;-71
2021/04/27 00:13:17;;;;;;;8.45;3.35;;;5.70;81.80;;;;;;4991457;28;20481;-69
2021/04/27 00:15:43;;;;;;;8.15;4.05;;;5.70;82.00;;;;;;4992145;28;20093;-70
2021/04/27 00:18:09;;;;;;;8.80;4.18;;;5.70;82.20;;;;;;4992260;28;20054;-69
2021/04/27 00:20:34;;;;;;;6.65;3.35;;;5.60;82.30;;;;;;4991848;28;20034;-71
2021/04/27 00:23:00;;;;;;;4.03;3.03;;;5.60;82.20;;;;;;4991313;28;20034;-69
2021/04/27 00:25:26;;;;;;;5.40;3.35;;;5.50;81.80;;;;;;4991497;28;20027;-69
2021/04/27 00:27:54;;;;;;;4.10;3.25;;;5.60;82.30;;;;;;4991940;28;20069;-69
2021/04/27 00:30:21;;;;;;;3.70;3.17;;;5.50;82.10;;;;;;4991831;28;20025;-69
2021/04/27 00:32:50;;;;;;;7.90;3.35;;;5.40;82.70;;;;;;4991046;28;20034;-68
2021/04/27 00:35:16;;;;;;;4.60;2.88;;;5.40;82.60;;;;;;4991720;28;20116;-68
2021/04/27 00:37:42;;;;;;;6.20;3.13;;;5.40;82.60;;;;;;4991850;28;20023;-69
2021/04/27 00:40:11;;;;;;;6.40;3.92;;;5.30;83.20;;;;;;4993558;28;20069;-69
2021/04/27 00:42:41;;;;;;;6.72;3.72;;;5.30;83.20;;;;;;4994857;28;20034;-69
2021/04/27 00:45:10;;;;;;;3.25;2.95;;;5.20;82.90;;;;;;5002009;28;20019;-69
2021/04/27 00:47:36;;;;;;;7.80;3.20;;;5.20;83.00;;;;;;5017655;28;20023;-68
2021/04/27 00:50:08;;;;;;;8.15;2.78;;;5.10;82.90;;;;;;5004668;28;20059;-69
2021/04/27 00:52:35;;;;;;;3.83;2.85;;;5.10;83.40;;;;;;4996474;28;20027;-69
2021/04/27 00:55:02;;;;;;;4.82;2.50;;;5.10;83.20;;;;;;4995374;28;20393;-69
2021/04/27 00:57:28;;;;;;;3.17;2.90;;;5.00;83.50;;;;;;4994905;28;20469;-69
2021/04/27 00:59:55;;;;;;;5.10;3.28;;;5.00;83.50;;;;;;4995425;28;20042;-70
2021/04/27 01:02:21;;;;;;;10.43;3.47;;;4.90;84.10;;;;;;4995144;28;20393;-69
2021/04/27 01:04:46;;;;;;;4.95;2.97;;;4.90;84.20;;;;;;4994601;28;20030;-69
2021/04/27 01:07:16;;;;;;;6.35;3.45;;;5.00;84.00;;;;;;4995150;28;20753;-69
2021/04/27 01:09:51;;;;;;;6.80;3.05;;;4.90;83.80;;;;;;4995119;28;20053;-70
2021/04/27 01:12:20;;;;;;;4.07;3.00;;;4.90;83.80;;;;;;4994804;28;20033;-69
2021/04/27 01:14:51;;;;;;;4.78;2.80;;;4.80;84.30;;;;;;4994329;28;20128;-68
2021/04/27 01:17:20;;;;;;;3.50;2.77;;;4.80;84.90;;;;;;4995013;28;20023;-69
2021/04/27 01:19:56;;;;;;;3.58;2.70;;;4.80;85.10;;;;;;4995195;28;20081;-69
2021/04/27 01:22:33;;;;;;;8.75;2.83;;;4.70;84.20;;;;;;4994785;28;20022;-69
2021/04/27 01:25:02;;;;;;;5.82;2.72;;;4.70;84.80;;;;;;4994015;28;20037;-69
2021/04/27 01:27:28;;;;;;;5.57;2.97;;;4.70;84.90;;;;;;4994225;28;20069;-68
2021/04/27 01:29:55;;;;;;;4.35;2.53;;;4.60;85.50;;;;;;4994214;28;20030;-69
2021/04/27 01:32:20;;;;;;;4.65;3.03;;;4.60;85.70;;;;;;4994410;28;20023;-69
2021/04/27 01:34:47;;;;;;;3.90;2.90;;;4.50;85.60;;;;;;4994069;28;20099;-70
2021/04/27 01:37:14;;;;;;;2.78;2.58;;;4.50;85.40;;;;;;4994597;28;20101;-70
2021/04/27 01:39:40;;;;;;;6.28;2.92;;;4.50;85.60;;;;;;4994242;28;20023;-70
2021/04/27 01:42:07;;;;;;;3.67;2.42;;;4.40;85.30;;;;;;4994066;28;20022;-69
2021/04/27 01:44:35;;;;;;;3.63;2.90;;;4.40;85.60;;;;;;4993698;28;20033;-70
2021/04/27 01:47:03;;;;;;;4.95;2.90;;;4.30;85.70;;;;;;4993192;28;20034;-69
2021/04/27 01:49:29;;;;;;;4.47;2.60;;;4.30;86.30;;;;;;4993424;28;20041;-69
2021/04/27 01:51:55;;;;;;;6.57;2.67;;;4.20;86.30;;;;;;4993303;28;20129;-69
2021/04/27 01:54:26;;;;;;;4.80;2.80;;;4.20;87.00;;;;;;4993426;28;20441;-69
2021/04/27 01:56:52;;;;;;;4.10;3.25;;;4.20;87.30;;;;;;4993924;28;20033;-70
2021/04/27 01:59:18;;;;;;;3.83;2.40;;;4.20;86.90;;;;;;4993939;28;20037;-70
2021/04/27 02:01:45;;;;;;;4.00;2.95;;;4.10;87.30;;;;;;4976516;28;20050;-69
2021/04/27 02:04:10;;;;;;;5.43;3.22;;;4.10;87.30;;;;;;5006529;28;20086;-69
2021/04/27 02:06:36;;;;;;;3.92;2.75;;;4.00;88.00;;;;;;5008703;28;20033;-69
2021/04/27 02:09:09;;;;;;;10.23;3.90;;;4.00;88.30;;;;;;4994114;28;20026;-69
2021/04/27 02:11:38;;;;;;;6.03;2.97;;;4.10;88.30;;;;;;4993770;28;20022;-71
2021/04/27 02:14:06;;;;;;;4.15;2.95;;;4.00;89.00;;;;;;4993478;28;20015;-69
2021/04/27 02:16:46;;;;;;;4.53;3.53;;;4.00;88.40;;;;;;4993443;28;20476;-69
2021/04/27 02:19:13;;;;;;;7.03;3.80;;;3.90;88.70;;;;;;4993654;28;20034;-70
2021/04/27 02:21:40;;;;;;;9.60;2.85;;;3.90;88.50;;;;;;4993621;28;20366;-68
2021/04/27 02:24:07;;;;;;;7.60;3.38;;;3.80;89.20;;;;;;4992778;28;20088;-69
2021/04/27 02:26:34;;;;;;;8.70;3.38;;;3.80;89.60;;;;;;4993370;28;20068;-69
2021/04/27 02:29:03;;;;;;;6.15;3.08;;;3.80;90.10;;;;;;4993276;28;20019;-69
2021/04/27 02:31:32;;;;;;;7.95;4.43;;;3.70;90.30;;;;;;4993335;28;20403;-70
2021/04/27 02:34:03;;;;;;;8.95;4.07;;;3.70;90.80;;;;;;4975181;28;20019;-69
2021/04/27 02:36:29;;;;;;;6.07;3.97;;;3.70;91.70;;;;;;4993301;28;20018;-69
2021/04/27 02:38:55;;;;;;;5.05;3.85;;;3.60;92.70;;;;;;4993305;28;20392;-69
2021/04/27 02:41:21;;;;;;;6.78;4.35;;;3.60;93.30;;;;;;4993009;28;20081;-69
2021/04/27 02:43:47;;;;;;;7.35;4.20;;;3.60;93.60;;;;;;4992471;28;20101;-69
2021/04/27 02:46:13;;;;;;;5.47;4.38;;;3.50;94.40;;;;;;4992917;28;20023;-69
2021/04/27 02:48:39;;;;;;;8.63;4.45;;;3.50;94.70;;;;;;4993087;28;20065;-69
2021/04/27 02:51:05;;;;;;;6.05;4.35;;;3.50;95.40;;;;;;4993015;28;20438;-69
2021/04/27 02:53:31;;;;;;;6.97;4.55;;;3.40;96.30;;;;;;4992407;28;20030;-69
2021/04/27 02:55:56;;;;;;;8.45;4.50;;;3.40;96.60;;;;;;4992877;28;20022;-69
2021/04/27 02:58:23;;;;;;;6.82;4.57;;;3.40;97.30;;;;;;5002800;28;20054;-69
2021/04/27 03:00:49;;;;;;;6.95;4.57;;;3.30;97.60;;;;;;5004810;28;20388;-70
2021/04/27 03:03:15;;;;;;;7.93;4.50;;;3.30;98.60;;;;;;4991423;28;20049;-69
2021/04/27 03:05:40;;;;;;;9.82;5.60;;;3.20;99.70;;;;;;4992696;28;20035;-69
2021/04/27 03:08:07;;;;;;;10.85;4.47;;;3.10;99.90;;;;;;4992912;28;20484;-69
2021/04/27 03:10:34;;;;;;;6.38;4.53;;;3.10;99.90;;;;;;4992867;28;20072;-70
2021/04/27 03:13:00;;;;;;;8.45;4.55;;;3.20;99.90;;;;;;4991876;28;20019;-68
2021/04/27 03:15:26;;;;;;;5.20;4.50;;;3.10;99.90;;;;;;4992662;28;20046;-68
2021/04/27 03:17:52;;;;;;;9.90;5.13;;;3.10;99.90;;;;;;4992646;28;20057;-68
2021/04/27 03:20:18;;;;;;;5.65;4.60;;;3.00;99.90;;;;;;4992359;28;20026;-69
2021/04/27 03:22:44;;;;;;;7.38;4.53;;;3.10;99.90;;;;;;4991966;28;20026;-68
2021/04/27 03:25:11;;;;;;;7.30;4.63;;;3.00;99.90;;;;;;4992474;28;20389;-68
2021/04/27 03:27:38;;;;;;;10.85;4.85;;;2.90;99.90;;;;;;4992183;28;20026;-69
2021/04/27 03:30:06;;;;;;;7.15;4.57;;;2.90;99.90;;;;;;4992320;28;20113;-69
2021/04/27 03:32:32;;;;;;;10.13;4.85;;;2.80;99.90;;;;;;4974771;28;20029;-69
2021/04/27 03:34:57;;;;;;;10.15;5.00;;;2.90;99.90;;;;;;4991537;28;20030;-69
2021/04/27 03:37:23;;;;;;;10.13;4.53;;;2.70;99.90;;;;;;4993149;28;20027;-68
2021/04/27 03:39:49;;;;;;;7.88;4.53;;;2.70;99.90;;;;;;4996269;28;20496;-70
2021/04/27 03:42:15;;;;;;;9.32;4.53;;;2.70;99.90;;;;;;4994275;28;20033;-70
2021/04/27 03:44:41;;;;;;;9.77;4.50;;;2.70;99.90;;;;;;4991748;28;20097;-69
2021/04/27 03:47:07;;;;;;;7.93;4.50;;;2.70;99.90;;;;;;4992538;28;20106;-69
2021/04/27 03:49:33;;;;;;;5.60;4.20;;;2.60;99.90;;;;;;4974556;28;20065;-70
2021/04/27 03:51:59;;;;;;;8.57;4.55;;;2.70;99.90;;;;;;4992277;28;20077;-69
2021/04/27 03:54:25;;;;;;;6.97;4.40;;;2.60;99.90;;;;;;4991481;28;20076;-69
2021/04/27 03:56:52;;;;;;;11.45;4.75;;;2.50;99.90;;;;;;4991983;28;20034;-68
2021/04/27 03:59:18;;;;;;;5.80;4.35;;;2.50;99.90;;;;;;4992228;28;20157;-68
2021/04/27 04:01:44;;;;;;;9.15;4.88;;;2.40;99.90;;;;;;4992261;28;20038;-70
2021/04/27 04:04:09;;;;;;;6.07;4.45;;;2.40;99.90;;;;;;5033615;22;20130;-71
2021/04/27 04:06:35;;;;;;;7.93;5.78;;;2.30;99.90;;;;;;5003608;28;20030;-74
2021/04/27 04:09:04;;;;;;;11.07;5.60;;;2.30;99.90;;;;;;5005022;28;20154;-74
2021/04/27 04:11:31;;;;;;;7.78;5.50;;;2.30;99.90;;;;;;5012410;28;20018;-71
2021/04/27 04:13:57;;;;;;;9.10;5.78;;;2.30;99.90;;;;;;5004721;28;20464;-71
2021/04/27 04:16:23;;;;;;;7.40;4.93;;;2.40;99.90;;;;;;5002478;28;20033;-72
2021/04/27 04:18:48;;;;;;;8.13;5.25;;;2.40;99.90;;;;;;4998774;28;20023;-73
2021/04/27 04:21:14;;;;;;;9.63;5.20;;;2.50;99.90;;;;;;4999668;28;20026;-73
2021/04/27 04:23:39;;;;;;;8.57;4.95;;;2.60;99.90;;;;;;4998038;28;20218;-71
2021/04/27 04:26:05;;;;;;;6.53;4.97;;;2.60;99.90;;;;;;5006013;28;20064;-73
2021/04/27 04:28:31;;;;;;;10.00;4.50;;;2.50;99.90;;;;;;5017998;28;20573;-73
2021/04/27 04:30:57;;;;;;;10.25;4.40;;;2.60;99.90;;;;;;5021284;28;20022;-73
2021/04/27 04:33:22;;;;;;;7.72;4.97;;;2.60;99.90;;;;;;5018484;28;20026;-72
2021/04/27 04:35:48;;;;;;;13.70;4.82;;;2.60;99.90;;;;;;5021201;28;20022;-72
2021/04/27 04:38:17;;;;;;;11.50;4.40;;;2.60;99.90;;;;;;5018970;28;20032;-71
2021/04/27 04:40:43;;;;;;;7.45;4.25;;;2.60;99.90;;;;;;5019541;28;20022;-71
2021/04/27 04:43:08;;;;;;;7.63;4.80;;;2.60;99.90;;;;;;5018200;28;20126;-72
2021/04/27 04:45:34;;;;;;;7.18;3.92;;;2.60;99.90;;;;;;5019175;28;20033;-73
2021/04/27 04:48:00;;;;;;;8.00;4.35;;;2.60;99.90;;;;;;5019198;28;20069;-72
2021/04/27 04:50:26;;;;;;;8.25;4.95;;;2.60;99.90;;;;;;5001558;28;20022;-71
2021/04/27 04:52:51;;;;;;;10.00;4.63;;;2.60;99.90;;;;;;5001126;28;20455;-72
2021/04/27 04:55:17;;;;;;;5.97;4.93;;;2.60;99.90;;;;;;4998176;28;20049;-73
2021/04/27 04:57:43;;;;;;;5.63;4.78;;;2.80;99.90;;;;;;4999709;28;20022;-72
2021/04/27 05:00:12;;;;;;;7.00;4.70;;;2.80;99.90;;;;;;4997767;28;20049;-73
2021/04/27 05:02:39;;;;;;;11.15;4.55;;;2.80;99.90;;;;;;5005722;28;20079;-75
2021/04/27 05:05:06;;;;;;;10.88;4.75;;;2.90;99.90;;;;;;5028843;28;20037;-72
2021/04/27 05:07:39;;;;;;;9.18;4.72;;;2.90;99.90;;;;;;5021816;28;20035;-74
2021/04/27 05:10:05;;;;;;;10.45;5.47;;;3.00;99.90;;;;;;5021043;28;20112;-71
2021/04/27 05:12:31;;;;;;;10.48;4.97;;;3.00;99.90;;;;;;5035928;28;20060;-71
2021/04/27 05:14:56;;;;;;;7.60;4.63;;;3.00;99.90;;;;;;5021244;28;20026;-72
2021/04/27 05:17:22;;;;;;;12.32;4.53;;;3.10;99.90;;;;;;5011221;28;20448;-71
2021/04/27 05:19:48;;;;;;;9.77;4.75;;;3.10;99.90;;;;;;5026749;28;20399;-72
2021/04/27 05:22:13;;;;;;;8.73;4.55;;;3.20;99.90;;;;;;5001682;28;20026;-71
2021/04/27 05:24:39;;;;;;;9.00;5.30;;;3.20;99.90;;;;;;5019487;28;20439;-73
2021/04/27 05:27:07;;;;;;;8.00;4.80;;;3.20;99.90;;;;;;5016956;28;20101;-71
2021/04/27 05:29:33;;;;;;;7.63;4.80;;;3.30;99.90;;;;;;5015877;28;20112;-74
2021/04/27 05:31:59;;;;;;;11.48;5.40;;;3.40;99.90;;;;;;5003841;28;20018;-73
2021/04/27 05:34:25;;;;;;;6.18;4.80;;;3.40;99.90;;;;;;5019365;28;20021;-72
2021/04/27 05:36:51;;;;;;;6.60;4.68;;;3.50;99.90;;;;;;5042184;28;20051;-72
2021/04/27 05:39:17;;;;;;;6.47;4.78;;;3.50;99.90;;;;;;5038731;28;20055;-71
2021/04/27 05:41:42;;;;;;;7.95;5.10;;;3.50;99.90;;;;;;5021549;28;20056;-72
2021/04/27 05:44:09;;;;;;;15.32;4.30;;;3.50;99.90;;;;;;5040302;28;20549;-73
2021/04/27 05:46:35;;;;;;;8.60;4.63;;;3.60;99.90;;;;;;5027030;28;20093;-72
2021/04/27 05:49:01;;;;;;;11.27;4.10;;;3.50;99.90;;;;;;5046788;28;20033;-72
2021/04/27 05:51:26;;;;;;;7.07;3.90;;;3.60;99.90;;;;;;5042808;28;20021;-76
2021/04/27 05:53:52;;;;;;;5.82;3.78;;;3.50;99.90;;;;;;5043347;28;20026;-74
2021/04/27 05:56:18;;;;;;;8.35;3.85;;;3.60;99.90;;;;;;5042731;28;20026;-73
2021/04/27 05:58:44;;;;;;;4.30;3.80;;;3.40;99.90;;;;;;5041914;28;20049;-73
2021/04/27 06:01:11;;;;;;;5.65;3.88;;;3.60;99.90;;;;;;5042513;28;20057;-74
2021/04/27 06:03:37;;;;;;;5.60;4.07;;;3.90;99.90;;;;;;5024386;28;20030;-75
2021/04/27 06:06:03;;;;;;;11.10;4.35;;;4.10;99.90;;;;;;5020879;28;20057;-74
2021/04/27 06:08:29;;;;;;;12.00;5.03;;;4.00;99.90;;;;;;5021437;28;20472;-70
2021/04/27 06:10:58;;;;;;;10.15;4.63;;;4.10;99.90;;;;;;5027991;28;20021;-73
2021/04/27 06:13:24;;;;;;;9.32;4.65;;;4.10;99.90;;;;;;5015969;28;20026;-71
2021/04/27 06:15:50;;;;;;;13.90;4.40;;;4.20;99.90;;;;;;5036862;28;20018;-72
2021/04/27 06:18:15;;;;;;;11.00;4.38;;;4.30;99.90;;;;;;5021925;28;20545;-71
2021/04/27 06:20:41;;;;;;;6.18;3.72;;;4.60;99.90;;;;;;5034838;28;20402;-72
2021/04/27 06:23:07;;;;;;;12.48;4.80;;;4.80;99.90;;;;;;5033366;28;20083;-72
2021/04/27 06:25:33;;;;;;;8.05;4.25;;;4.90;99.90;;;;;;5035408;28;20021;-72
2021/04/27 06:27:59;;;;;;;9.40;4.63;;;4.90;99.90;;;;;;5035057;28;20099;-71
2021/04/27 06:30:25;;;;;;;9.30;4.65;;;5.00;99.90;;;;;;5035738;28;20037;-72
2021/04/27 06:32:53;;;;;;;9.25;5.00;;;4.90;99.90;;;;;;5016972;28;20021;-72
2021/04/27 06:35:26;;;;;;;13.68;5.47;;;5.00;99.90;;;;;;5011875;28;20025;-71
2021/04/27 06:37:52;;;;;;;8.10;4.88;;;5.20;99.90;;;;;;4996889;28;20168;-73
2021/04/27 06:40:18;;;;;;;6.38;4.45;;;5.30;99.90;;;;;;5014809;28;20032;-70
2021/04/27 06:42:44;;;;;;;8.70;4.75;;;5.50;99.90;;;;;;5014310;28;20088;-72
2021/04/27 06:45:11;;;;;;;7.97;4.35;;;5.60;99.90;;;;;;5016661;28;20527;-73
2021/04/27 06:47:37;;;;;;;9.13;4.22;;;5.60;99.90;;;;;;5015558;28;20471;-70
2021/04/27 06:50:04;;;;;;;7.05;4.57;;;5.60;99.90;;;;;;5016944;28;20029;-74
2021/04/27 06:52:30;;;;;;;9.48;4.97;;;5.60;99.90;;;;;;5018203;28;20022;-73
2021/04/27 06:54:56;;;;;;;9.63;4.20;;;5.70;99.90;;;;;;5022274;28;20029;-74
2021/04/27 06:57:21;;;;;;;5.90;4.43;;;5.90;99.90;;;;;;5007585;28;20053;-71
2021/04/27 06:59:47;;;;;;;13.18;4.10;;;6.00;99.90;;;;;;5024863;28;20111;-73
2021/04/27 07:02:13;;;;;;;5.97;4.07;;;6.30;99.90;;;;;;5022550;28;20034;-75
2021/04/27 07:04:39;;;;;;;8.93;4.47;;;6.60;99.90;;;;;;5018176;28;20061;-72
2021/04/27 07:07:05;;;;;;;11.50;4.47;;;6.80;99.90;;;;;;5018578;28;20026;-72
2021/04/27 07:09:31;;;;;;;10.05;5.38;;;7.00;99.40;;;;;;5012003;28;20035;-72
2021/04/27 07:11:57;;;;;;;6.35;4.45;;;7.20;98.70;;;;;;5041100;28;20041;-72
2021/04/27 07:14:23;;;;;;;5.85;4.70;;;7.40;98.30;;;;;;5020581;28;20415;-73
2021/04/27 07:16:49;;;;;;;6.35;4.30;;;7.50;98.30;;;;;;5015260;28;20022;-72
2021/04/27 07:19:15;;;;;;;12.05;4.70;;;7.70;97.00;;;;;;5036345;28;20029;-72
2021/04/27 07:21:41;;;;;;;9.48;5.03;;;7.70;96.50;;;;;;5037030;28;20414;-74
2021/04/27 07:24:08;;;;;;;6.53;4.07;;;7.80;96.50;;;;;;5037188;28;20029;-73
2021/04/27 07:26:35;;;;;;;13.07;4.72;;;7.90;96.60;;;;;;5025972;28;20022;-71
2021/04/27 07:29:01;;;;;;;8.77;4.78;;;8.10;96.20;;;;;;5000710;28;20025;-73
2021/04/27 07:31:27;;;;;;;4.95;4.22;;;8.30;95.80;;;;;;5020658;28;20515;-72
2021/04/27 07:33:52;;;;;;;7.70;4.97;;;8.70;95.50;;;;;;4996624;28;20034;-72
2021/04/27 07:36:19;;;;;;;11.75;5.13;;;9.00;94.30;;;;;;5018584;28;20053;-74
2021/04/27 07:38:45;;;;;;;10.02;4.57;;;9.30;94.30;;;;;;5001446;28;20030;-73
2021/04/27 07:41:11;;;;;;;10.43;4.43;;;9.30;93.20;;;;;;5015846;28;20098;-73
2021/04/27 07:43:37;;;;;;;5.72;4.18;;;9.30;92.40;;;;;;5013741;28;20025;-71
2021/04/27 07:46:03;;;;;;;8.32;4.88;;;9.50;92.50;;;;;;5017407;28;20104;-71
2021/04/27 07:48:28;;;;;;;8.43;5.45;;;9.50;92.40;;;;;;5016798;28;20029;-72
2021/04/27 07:50:54;;;;;;;10.07;5.75;;;9.80;92.10;;;;;;5019236;28;20022;-72
2021/04/27 07:53:20;;;;;;;10.80;5.30;;;10.30;91.80;;;;;;5018344;28;20029;-72
2021/04/27 07:55:47;;;;;;;7.30;5.15;;;10.50;90.40;;;;;;5004415;28;20022;-71
2021/04/27 07:58:13;;;;;;;9.52;5.35;;;10.80;90.60;;;;;;5039078;28;20734;-73
2021/04/27 08:00:39;;;;;;;13.95;6.00;;;10.90;88.50;;;;;;5038510;28;20054;-71
2021/04/27 08:03:05;;;;;;;10.80;5.70;;;11.00;84.90;;;;;;5018290;28;20406;-72
2021/04/27 08:05:31;;;;;;;10.85;6.13;;;11.50;83.70;;;;;;5017594;28;20191;-72
2021/04/27 08:07:57;;;;;;;9.88;6.00;;;11.60;83.10;;;;;;5017006;28;20516;-70
2021/04/27 08:10:24;;;;;;;8.07;6.07;;;11.70;82.10;;;;;;5032064;28;20025;-71
2021/04/27 08:12:51;;;;;;;9.73;5.47;;;11.70;81.90;;;;;;5034517;28;20018;-72
2021/04/27 08:15:23;;;;;;;9.57;6.05;;;12.00;80.70;;;;;;5017505;28;20041;-74
2021/04/27 08:17:49;;;;;;;;;;;12.20;77.50;;;;;;5036363;28;20057;-74
2021/04/27 08:20:15;;;;;;;8.02;5.55;;;12.30;78.70;;;;;;5017924;28;19905;-71
2021/04/27 08:22:43;;;;;;;8.13;5.35;;;12.70;79.40;;;;;;5030911;28;20032;-72
2021/04/27 08:25:09;;;;;;;16.92;5.78;;;13.00;77.00;;;;;;5031649;28;20029;-74
2021/04/27 08:27:35;;;;;;;9.95;5.53;;;13.90;74.60;;;;;;5033990;28;20033;-71
2021/04/27 08:30:01;;;;;;;8.80;6.15;;;14.60;73.00;;;;;;5031095;28;20079;-72
2021/04/27 08:32:27;;;;;;;10.32;5.57;;;15.20;67.20;;;;;;5021120;28;20026;-74
2021/04/27 08:34:53;;;;;;;6.35;5.15;;;15.50;66.60;;;;;;5010422;28;20022;-73
2021/04/27 08:37:19;;;;;;;9.77;5.72;;;15.60;63.20;;;;;;5013149;28;20465;-72
2021/04/27 08:39:45;;;;;;;6.13;5.22;;;15.40;64.90;;;;;;5011840;28;20036;-73
2021/04/27 08:42:14;;;;;;;7.25;5.47;;;15.40;65.90;;;;;;5031764;28;20097;-72
2021/04/27 08:44:40;;;;;;;12.40;6.05;;;15.50;65.50;;;;;;5030071;28;20022;-73
2021/04/27 08:47:07;;;;;;;13.75;5.45;;;15.70;63.40;;;;;;5014342;28;20033;-73
2021/04/27 08:49:33;;;;;;;8.57;5.57;;;15.90;63.30;;;;;;5016487;28;20030;-73
2021/04/27 08:51:59;;;;;;;9.98;5.40;;;17.00;60.40;;;;;;5042207;28;20056;-72
2021/04/27 08:54:25;;;;;;;8.43;5.18;;;17.10;57.60;;;;;;5017945;28;20100;-70
2021/04/27 08:56:51;;;;;;;6.32;4.68;;;17.60;59.90;;;;;;5045148;28;20033;-73
2021/04/27 08:59:17;;;;;;;12.05;5.18;;;17.40;57.30;;;;;;5021211;28;20029;-71
2021/04/27 09:01:46;;;;;;;7.75;5.03;;;17.10;56.50;;;;;;5004208;28;20029;-71
2021/04/27 09:04:12;;;;;;;6.15;4.97;;;17.30;57.90;;;;;;5018059;28;20507;-73
2021/04/27 09:06:38;;;;;;;7.07;6.20;;;18.20;53.60;;;;;;5038494;28;20051;-72
2021/04/27 09:09:04;;;;;;;7.85;5.43;;;18.30;53.70;;;;;;5036411;28;20021;-73
2021/04/27 09:11:43;;;;;;;10.98;5.53;;;17.70;54.40;;;;;;5021048;28;20026;-72
2021/04/27 09:14:19;;;;;;;12.02;5.82;;;16.90;56.60;;;;;;5016957;28;20081;-72
2021/04/27 09:16:59;;;;;;;11.25;6.35;;;17.60;57.30;;;;;;5016240;28;20021;-73
2021/04/27 09:19:46;;;;;;;7.20;5.38;;;18.10;55.20;;;;;;5018038;28;20026;-72
2021/04/27 09:22:16;;;;;;;11.25;5.70;;;18.20;54.70;;;;;;5000904;28;20065;-74
2021/04/27 09:25:11;;;;;;;7.10;5.45;;;18.80;51.40;;;;;;5017028;28;20033;-71
2021/04/27 09:27:48;;;;;;;7.80;5.20;;;18.40;53.20;;;;;;5001002;28;20057;-73
2021/04/27 09:30:26;;;;;;;11.45;6.10;;;18.60;52.10;;;;;;5017848;28;20018;-70
2021/04/27 09:32:57;;;;;;;12.27;5.45;;;18.10;53.80;;;;;;5018540;28;20030;-73
2021/04/27 09:35:40;;;;;;;6.20;5.28;;;18.90;53.90;;;;;;5030196;28;20515;-73
2021/04/27 09:38:12;;;;;;;8.18;5.15;;;18.70;52.40;;;;;;5036829;28;20403;-72
2021/04/27 09:41:04;;;;;;;10.32;5.60;;;19.20;51.20;;;;;;5037618;28;20349;-71
2021/04/27 09:43:39;;;;;;;7.38;5.72;;;19.00;49.70;;;;;;5033098;28;20100;-70
2021/04/27 09:46:07;;;;;;;8.85;6.05;;;18.60;49.30;;;;;;5034414;28;20056;-71
2021/04/27 09:48:39;;;;;;;6.15;5.55;;;18.90;51.60;;;;;;5036057;28;20030;-70
2021/04/27 09:51:19;;;;;;;6.00;5.40;;;19.90;48.90;;;;;;5034456;28;20024;-72
2021/04/27 09:53:52;;;;;;;9.63;6.15;;;20.50;48.00;;;;;;5033471;28;20017;-73
2021/04/27 09:56:34;;;;;;;9.73;6.03;;;20.20;49.10;;;;;;5020942;28;20060;-75
2021/04/27 09:59:15;;;;;;;7.45;6.18;;;19.80;50.20;;;;;;5019002;28;20137;-73
2021/04/27 10:01:46;;;;;;;8.38;5.95;;;20.20;49.20;;;;;;5014064;28;20029;-72
2021/04/27 10:04:12;;;;;;;9.45;5.65;;;20.20;49.20;;;;;;5012792;28;20238;-71
2021/04/27 10:06:41;;;;;;;7.55;6.07;;;20.30;47.70;;;;;;5018973;28;20084;-71
2021/04/27 10:09:08;;;;;;;9.82;5.30;;;20.80;46.30;;;;;;5036477;23;20107;-71
2021/04/27 10:11:35;;;;;;;6.40;5.78;;;21.60;45.80;;;;;;5018365;28;20463;-70
2021/04/27 10:14:03;;;;;;;6.97;5.18;;;19.90;48.40;;;;;;5023872;28;20052;-70
2021/04/27 10:16:29;;;;;;;7.60;6.25;;;19.20;49.90;;;;;;5031099;28;20049;-72
2021/04/27 10:18:55;;;;;;;8.63;6.20;;;19.90;49.00;;;;;;5022750;28;20025;-70
2021/04/27 10:21:21;;;;;;;7.35;6.60;;;20.20;47.40;;;;;;5032533;28;20025;-72
2021/04/27 10:23:50;;;;;;;10.70;6.53;;;20.80;46.90;;;;;;5016752;28;20030;-70
2021/04/27 10:26:24;;;;;;;6.80;5.78;;;20.30;46.40;;;;;;5027088;28;20052;-71
2021/04/27 10:29:21;;;;;;;6.90;5.72;;;21.30;48.00;;;;;;5032812;28;20057;-70
2021/04/27 10:32:08;;;;;;;6.68;6.07;;;22.00;46.60;;;;;;5032814;28;20104;-71
2021/04/27 10:34:33;;;;;;;7.47;5.65;;;21.80;45.20;;;;;;5014580;28;20022;-69
2021/04/27 10:36:59;;;;;;;9.02;6.22;;;20.00;49.20;;;;;;5032606;28;20029;-70
2021/04/27 10:39:46;;;;;;;9.80;6.20;;;20.30;50.10;;;;;;5013960;28;20026;-70
2021/04/27 10:42:24;;;;;;;7.57;6.05;;;21.50;49.50;;;;;;5012776;28;20021;-70
2021/04/27 10:44:51;;;;;;;9.48;6.93;;;22.00;45.50;;;;;;5011831;28;20029;-71
2021/04/27 10:47:18;;;;;;;7.60;6.35;;;22.10;45.30;;;;;;5012514;28;20080;-70
2021/04/27 10:49:44;;;;;;;6.80;6.10;;;22.70;44.10;;;;;;4995090;28;20053;-71
2021/04/27 10:52:31;;;;;;;7.63;6.30;;;22.80;43.20;;;;;;5012789;28;20069;-71
2021/04/27 10:55:27;;;;;;;9.25;5.90;;;23.00;43.70;;;;;;5011497;28;20022;-70
2021/04/27 10:57:58;;;;;;;6.72;6.13;;;23.00;42.50;;;;;;5017626;28;20053;-71
2021/04/27 11:00:44;;;;;;;9.43;5.95;;;22.40;45.20;;;;;;5012478;28;20026;-71
2021/04/27 11:03:15;;;;;;;6.30;5.80;;;22.20;43.50;;;;;;5013858;28;20034;-69
2021/04/27 11:06:06;;;;;;;6.90;6.22;;;22.60;44.90;;;;;;5031903;28;20748;-70
2021/04/27 11:08:56;;;;;;;6.30;5.70;;;23.60;43.20;;;;;;5028631;28;20052;-69
2021/04/27 11:11:24;;;;;;;8.13;6.55;;;24.40;39.90;;;;;;5019583;28;20037;-70
2021/04/27 11:13:52;;;;;;;10.68;7.13;;;24.30;42.20;;;;;;5011613;28;20021;-69
2021/04/27 11:16:28;;;;;;;10.20;6.85;;;22.60;43.80;;;;;;5012171;28;20071;-70
2021/04/27 11:19:12;;;;;;;8.63;6.88;;;20.40;45.40;;;;;;5016299;28;20032;-71
2021/04/27 11:21:40;;;;;;;7.60;6.85;;;19.90;47.80;;;;;;5021530;28;20452;-69
2021/04/27 11:24:08;;;;;;;9.68;6.47;;;21.10;45.10;;;;;;4993737;28;20349;-68
2021/04/27 11:26:34;;;;;;;14.02;7.53;;;21.10;45.00;;;;;;5012075;28;20109;-70
2021/04/27 11:29:01;;;;;;;7.72;6.93;;;20.60;46.30;;;;;;5012126;28;20482;-69
2021/04/27 11:31:27;;;;;;;9.52;6.88;;;21.30;45.60;;;;;;5022901;28;20033;-71
2021/04/27 11:33:55;;;;;;;8.15;6.78;;;21.80;43.40;;;;;;5026920;28;20053;-69
2021/04/27 11:36:41;;;;;;;7.15;6.38;;;20.60;46.10;;;;;;5024262;28;20017;-70
2021/04/27 11:39:14;;;;;;;11.20;6.93;;;21.30;45.80;;;;;;5000259;28;20464;-69
2021/04/27 11:41:49;;;;;;;10.10;6.68;;;21.80;44.40;;;;;;5030532;28;20044;-70
2021/04/27 11:44:17;;;;;;;10.43;6.72;;;22.50;44.10;;;;;;5032384;28;20026;-69
2021/04/27 11:47:02;;;;;;;12.27;6.85;;;22.00;43.50;;;;;;5031352;28;20025;-70
2021/04/27 11:49:46;;;;;;;7.82;6.88;;;22.80;43.30;;;;;;5016532;28;20522;-69
2021/04/27 11:52:13;;;;;;;9.52;7.68;;;23.20;41.40;;;;;;5012187;28;20084;-69
2021/04/27 11:54:39;;;;;;;7.03;6.30;;;22.70;42.40;;;;;;5010919;28;20029;-72
2021/04/27 11:57:14;;;;;;;9.18;7.15;;;23.20;43.60;;;;;;5011595;28;20488;-73
2021/04/27 11:59:40;;;;;;;7.47;6.57;;;23.60;40.10;;;;;;5012186;28;20065;-72
2021/04/27 12:02:05;;;;;;;10.32;6.63;;;23.80;39.00;;;;;;5029794;28;20494;-72
2021/04/27 12:04:31;;;;;;;9.77;6.97;;;24.10;40.50;;;;;;5030972;28;20029;-71
2021/04/27 12:07:01;;;;;;;11.68;6.70;;;23.90;38.90;;;;;;5031846;28;20479;-73
2021/04/27 12:09:38;;;;;;;8.23;6.38;;;24.40;40.00;;;;;;5030554;28;20425;-71
2021/04/27 12:12:09;;;;;;;10.05;6.93;;;24.00;40.30;;;;;;5032689;28;20118;-72
2021/04/27 12:14:35;;;;;;;8.38;6.55;;;24.40;39.20;;;;;;5036880;28;20025;-72
2021/04/27 12:17:00;;;;;;;8.10;6.20;;;24.00;38.50;;;;;;5047006;28;20017;-72
2021/04/27 12:19:27;;;;;;;11.88;6.53;;;23.70;39.00;;;;;;5043537;28;20033;-71
2021/04/27 12:22:05;;;;;;;9.60;6.40;;;24.10;37.30;;;;;;5011020;28;20030;-73
2021/04/27 12:24:35;;;;;;;7.97;6.88;;;22.80;39.50;;;;;;5018860;28;20025;-71
2021/04/27 12:27:06;;;;;;;10.05;7.10;;;22.90;39.50;;;;;;5017999;28;20017;-72
2021/04/27 12:30:00;;;;;;;12.32;6.70;;;23.60;38.90;;;;;;5018788;28;20806;-72
2021/04/27 12:32:29;;;;;;;8.90;6.20;;;22.90;37.70;;;;;;5011634;28;20480;-72
2021/04/27 12:34:59;;;;;;;10.57;6.40;;;23.40;38.70;;;;;;5020116;28;20052;-72
2021/04/27 12:37:29;;;;;;;12.23;6.75;;;22.90;38.90;;;;;;5023628;28;20033;-71
2021/04/27 12:39:55;;;;;;;8.82;5.68;;;22.90;38.90;;;;;;5014606;28;20491;-71
2021/04/27 12:42:23;;;;;;;10.88;6.00;;;23.60;38.40;;;;;;5015381;28;20392;-71
2021/04/27 12:44:56;;;;;;;6.93;6.32;;;23.30;35.70;;;;;;5030636;28;20029;-69
2021/04/27 12:47:25;;;;;;;9.45;7.03;;;22.90;38.70;;;;;;5034773;28;20104;-70
2021/04/27 12:50:18;;;;;;;9.43;6.10;;;23.40;38.70;;;;;;5034295;28;20025;-71
2021/04/27 12:52:49;;;;;;;11.45;6.50;;;23.80;37.00;;;;;;5020867;28;20025;-69
2021/04/27 12:55:24;;;;;;;10.45;6.32;;;24.30;39.40;;;;;;5013807;28;20439;-70
2021/04/27 12:57:50;;;;;;;7.63;5.72;;;24.90;33.40;;;;;;5014627;28;20514;-71